sensor_id;sensor_type;location;lat;lon;timestamp;pressure;altitude;pressure_sealevel;temperature;humidity
59367;BME280;45163;47.690;11.770;2022-12-08T00:01:12;92795.38;;;-1.78;100.00
59367;BME280;45163;47.690;11.770;2022-12-08T00:03:39;92797.28;;;-1.78;100.00
59367;BME280;45163;47.690;11.770;2022-12-08T00:06:17;92790.75;;;-1.81;100.00
59367;BME280;45163;47.690;11.770;2022-12-08T00:09:04;92781.94;;;-1.85;100.00
59367;BME280;45163;47.690;11.770;2022-12-08T00:12:15;92767.00;;;-1.89;100.00
59367;BME280;45163;47.690;11.770;2022-12-08T00:14:43;92774.25;;;-1.90;100.00
59367;BME280;45163;47.690;11.770;2022-12-08T00:17:11;92771.59;;;-1.90;100.00
59367;BME280;45163;47.690;11.770;2022-12-08T00:19:38;92774.25;;;-1.90;100.00
59367;BME280;45163;47.690;11.770;2022-12-08T00:22:06;92760.50;;;-1.92;100.00
59367;BME280;45163;47.690;11.770;2022-12-08T00:24:34;92766.63;;;-1.91;100.00
59367;BME280;45163;47.690;11.770;2022-12-08T00:27:03;92760.50;;;-1.92;100.00
59367;BME280;45163;47.690;11.770;2022-12-08T00:29:29;92758.19;;;-1.93;100.00
59367;BME280;45163;47.690;11.770;2022-12-08T00:31:55;92765.06;;;-1.92;100.00
59367;BME280;45163;47.690;11.770;2022-12-08T00:34:21;92755.88;;;-1.95;100.00
59367;BME280;45163;47.690;11.770;2022-12-08T00:36:47;92761.22;;;-1.95;100.00
59367;BME280;45163;47.690;11.770;2022-12-08T00:39:15;92758.19;;;-1.93;100.00
59367;BME280;45163;47.690;11.770;2022-12-08T00:41:41;92761.25;;;-1.91;100.00
59367;BME280;45163;47.690;11.770;2022-12-08T00:44:26;92761.31;;;-1.88;100.00
59367;BME280;45163;47.690;11.770;2022-12-08T00:46:52;92769.69;;;-1.89;100.00
59367;BME280;45163;47.690;11.770;2022-12-08T00:49:18;92762.00;;;-1.94;100.00
59367;BME280;45163;47.690;11.770;2022-12-08T00:51:44;92754.34;;;-1.96;100.00
59367;BME280;45163;47.690;11.770;2022-12-08T00:54:10;92755.47;;;-1.97;100.00
59367;BME280;45163;47.690;11.770;2022-12-08T00:56:37;92752.44;;;-1.95;100.00
59367;BME280;45163;47.690;11.770;2022-12-08T00:59:04;92760.47;;;-1.95;100.00
59367;BME280;45163;47.690;11.770;2022-12-08T01:01:31;92754.34;;;-1.96;100.00
59367;BME280;45163;47.690;11.770;2022-12-08T01:04:02;92755.13;;;-1.95;100.00
59367;BME280;45163;47.690;11.770;2022-12-08T01:06:29;92753.94;;;-1.98;100.00
59367;BME280;45163;47.690;11.770;2022-12-08T01:08:55;92760.47;;;-1.95;100.00
59367;BME280;45163;47.690;11.770;2022-12-08T01:11:21;92759.72;;;-1.92;100.00
59367;BME280;45163;47.690;11.770;2022-12-08T01:13:47;92764.28;;;-1.93;100.00
59367;BME280;45163;47.690;11.770;2022-12-08T01:16:24;92753.97;;;-1.94;100.00
59367;BME280;45163;47.690;11.770;2022-12-08T01:18:50;92755.16;;;-1.92;100.00
59367;BME280;45163;47.690;11.770;2022-12-08T01:21:17;92755.88;;;-1.95;100.00
59367;BME280;45163;47.690;11.770;2022-12-08T01:23:43;92750.53;;;-1.95;100.00
59367;BME280;45163;47.690;11.770;2022-12-08T01:26:13;92757.41;;;-1.94;100.00
59367;BME280;45163;47.690;11.770;2022-12-08T01:28:40;92754.75;;;-1.94;100.00
59367;BME280;45163;47.690;11.770;2022-12-08T01:31:11;92753.59;;;-1.93;100.00
59367;BME280;45163;47.690;11.770;2022-12-08T01:33:38;92756.66;;;-1.94;100.00
59367;BME280;45163;47.690;11.770;2022-12-08T01:36:05;92747.06;;;-1.99;100.00
59367;BME280;45163;47.690;11.770;2022-12-08T01:38:31;92748.59;;;-1.98;100.00
59367;BME280;45163;47.690;11.770;2022-12-08T01:41:06;92740.53;;;-2.02;100.00
59367;BME280;45163;47.690;11.770;2022-12-08T01:44:00;92735.59;;;-1.99;100.00
59367;BME280;45163;47.690;11.770;2022-12-08T01:46:30;92737.13;;;-1.98;100.00
59367;BME280;45163;47.690;11.770;2022-12-08T01:51:26;92731.78;;;-1.98;100.00
59367;BME280;45163;47.690;11.770;2022-12-08T01:53:53;92736.75;;;-2.01;100.00
59367;BME280;45163;47.690;11.770;2022-12-08T01:56:27;92734.84;;;-2.00;100.00
59367;BME280;45163;47.690;11.770;2022-12-08T01:58:56;92729.06;;;-2.02;100.00
59367;BME280;45163;47.690;11.770;2022-12-08T02:01:22;92730.97;;;-2.03;100.00
59367;BME280;45163;47.690;11.770;2022-12-08T02:03:54;92728.31;;;-2.03;100.00
59367;BME280;45163;47.690;11.770;2022-12-08T02:06:22;92729.03;;;-2.06;100.00
59367;BME280;45163;47.690;11.770;2022-12-08T02:08:49;92725.59;;;-2.06;100.00
59367;BME280;45163;47.690;11.770;2022-12-08T02:11:15;92719.09;;;-2.09;100.00
59367;BME280;45163;47.690;11.770;2022-12-08T02:13:44;92715.63;;;-2.13;100.00
59367;BME280;45163;47.690;11.770;2022-12-08T02:16:36;92715.94;;;-2.18;100.00
59367;BME280;45163;47.690;11.770;2022-12-08T02:30:06;92709.88;;;-2.15;100.00
59367;BME280;45163;47.690;11.770;2022-12-08T02:35:09;92710.63;;;-2.14;100.00
59367;BME280;45163;47.690;11.770;2022-12-08T02:43:31;92704.13;;;-2.17;100.00
59367;BME280;45163;47.690;11.770;2022-12-08T02:46:15;92701.47;;;-2.17;100.00
59367;BME280;45163;47.690;11.770;2022-12-08T02:48:44;92698.78;;;-2.17;100.00
59367;BME280;45163;47.690;11.770;2022-12-08T02:51:10;92696.13;;;-2.17;100.00
59367;BME280;45163;47.690;11.770;2022-12-08T02:53:35;92692.31;;;-2.16;100.00
59367;BME280;45163;47.690;11.770;2022-12-08T03:07:22;92678.25;;;-2.06;100.00
59367;BME280;45163;47.690;11.770;2022-12-08T03:09:55;92682.81;;;-2.06;100.00
59367;BME280;45163;47.690;11.770;2022-12-08T03:12:30;92675.56;;;-2.06;100.00
59367;BME280;45163;47.690;11.770;2022-12-08T03:15:05;92672.16;;;-2.03;100.00
59367;BME280;45163;47.690;11.770;2022-12-08T03:17:33;92670.97;;;-2.05;100.00
59367;BME280;45163;47.690;11.770;2022-12-08T03:20:03;92681.28;;;-2.07;100.00
59367;BME280;45163;47.690;11.770;2022-12-08T03:22:33;92670.59;;;-2.07;100.00
59367;BME280;45163;47.690;11.770;2022-12-08T03:24:59;92671.38;;;-2.07;100.00
59367;BME280;45163;47.690;11.770;2022-12-08T03:27:27;92685.50;;;-2.06;100.00
59367;BME280;45163;47.690;11.770;2022-12-08T03:29:56;92667.53;;;-2.06;100.00
59367;BME280;45163;47.690;11.770;2022-12-08T03:35:02;92662.19;;;-2.06;100.00
59367;BME280;45163;47.690;11.770;2022-12-08T03:37:29;92662.19;;;-2.06;100.00
59367;BME280;45163;47.690;11.770;2022-12-08T03:39:55;92659.53;;;-2.06;100.00
59367;BME280;45163;47.690;11.770;2022-12-08T03:42:21;92657.63;;;-2.02;100.00
59367;BME280;45163;47.690;11.770;2022-12-08T03:44:47;92660.72;;;-1.99;100.00
59367;BME280;45163;47.690;11.770;2022-12-08T03:47:23;92652.72;;;-1.96;100.00
59367;BME280;45163;47.690;11.770;2022-12-08T03:49:49;92651.97;;;-1.93;100.00
59367;BME280;45163;47.690;11.770;2022-12-08T03:52:15;92653.16;;;-1.90;100.00
59367;BME280;45163;47.690;11.770;2022-12-08T03:54:41;92643.94;;;-1.93;100.00
59367;BME280;45163;47.690;11.770;2022-12-08T03:57:07;92648.53;;;-1.93;100.00
59367;BME280;45163;47.690;11.770;2022-12-08T03:59:33;92643.59;;;-1.91;100.00
59367;BME280;45163;47.690;11.770;2022-12-08T04:01:59;92647.00;;;-1.94;100.00
59367;BME280;45163;47.690;11.770;2022-12-08T04:04:25;92642.41;;;-1.94;100.00
59367;BME280;45163;47.690;11.770;2022-12-08T04:06:51;92643.19;;;-1.93;100.00
59367;BME280;45163;47.690;11.770;2022-12-08T04:09:17;92642.44;;;-1.90;100.00
59367;BME280;45163;47.690;11.770;2022-12-08T04:11:43;92641.69;;;-1.91;100.00
59367;BME280;45163;47.690;11.770;2022-12-08T04:14:09;92645.88;;;-1.90;100.00
59367;BME280;45163;47.690;11.770;2022-12-08T04:16:35;92642.84;;;-1.88;100.00
59367;BME280;45163;47.690;11.770;2022-12-08T04:19:01;92640.19;;;-1.85;100.00
59367;BME280;45163;47.690;11.770;2022-12-08T04:21:27;92634.06;;;-1.85;100.00
59367;BME280;45163;47.690;11.770;2022-12-08T04:23:53;92638.69;;;-1.82;100.00
59367;BME280;45163;47.690;11.770;2022-12-08T04:26:19;92626.06;;;-1.82;100.00
59367;BME280;45163;47.690;11.770;2022-12-08T04:28:45;92637.53;;;-1.81;100.00
59367;BME280;45163;47.690;11.770;2022-12-08T04:31:11;92633.72;;;-1.84;100.00
59367;BME280;45163;47.690;11.770;2022-12-08T04:33:38;92633.72;;;-1.84;100.00
59367;BME280;45163;47.690;11.770;2022-12-08T04:36:04;92638.66;;;-1.86;100.00
59367;BME280;45163;47.690;11.770;2022-12-08T04:38:32;92637.47;;;-1.88;100.00
59367;BME280;45163;47.690;11.770;2022-12-08T04:40:58;92628.34;;;-1.87;100.00
59367;BME280;45163;47.690;11.770;2022-12-08T04:43:24;92624.91;;;-1.88;100.00
59367;BME280;45163;47.690;11.770;2022-12-08T04:45:50;92623.75;;;-1.87;100.00
59367;BME280;45163;47.690;11.770;2022-12-08T04:48:16;92625.28;;;-1.86;100.00
59367;BME280;45163;47.690;11.770;2022-12-08T04:50:44;92629.13;;;-1.83;100.00
59367;BME280;45163;47.690;11.770;2022-12-08T04:53:11;92628.75;;;-1.82;100.00
59367;BME280;45163;47.690;11.770;2022-12-08T04:55:38;92627.25;;;-1.79;100.00
59367;BME280;45163;47.690;11.770;2022-12-08T04:58:06;92625.34;;;-1.79;100.00
59367;BME280;45163;47.690;11.770;2022-12-08T05:00:32;92623.41;;;-1.82;100.00
59367;BME280;45163;47.690;11.770;2022-12-08T05:02:58;92630.69;;;-1.79;100.00
59367;BME280;45163;47.690;11.770;2022-12-08T05:05:24;92629.50;;;-1.81;100.00
59367;BME280;45163;47.690;11.770;2022-12-08T05:07:50;92634.09;;;-1.82;100.00
59367;BME280;45163;47.690;11.770;2022-12-08T05:10:16;92629.50;;;-1.81;100.00
59367;BME280;45163;47.690;11.770;2022-12-08T05:12:42;92629.50;;;-1.81;100.00
59367;BME280;45163;47.690;11.770;2022-12-08T05:15:08;92631.41;;;-1.82;100.00
59367;BME280;45163;47.690;11.770;2022-12-08T05:17:34;92631.44;;;-1.78;100.00
59367;BME280;45163;47.690;11.770;2022-12-08T05:20:00;92627.63;;;-1.77;100.00
59367;BME280;45163;47.690;11.770;2022-12-08T05:22:26;92621.91;;;-1.76;100.00
59367;BME280;45163;47.690;11.770;2022-12-08T05:24:52;92617.34;;;-1.75;100.00
59367;BME280;45163;47.690;11.770;2022-12-08T05:27:18;92613.91;;;-1.72;100.00
59367;BME280;45163;47.690;11.770;2022-12-08T05:29:44;92617.69;;;-1.77;100.00
59367;BME280;45163;47.690;11.770;2022-12-08T05:32:12;92612.75;;;-1.74;100.00
59367;BME280;45163;47.690;11.770;2022-12-08T05:34:38;92609.69;;;-1.73;100.00
59367;BME280;45163;47.690;11.770;2022-12-08T05:37:04;92610.44;;;-1.72;100.00
59367;BME280;45163;47.690;11.770;2022-12-08T05:39:30;92606.25;;;-1.73;100.00
59367;BME280;45163;47.690;11.770;2022-12-08T05:41:56;92603.56;;;-1.73;100.00
59367;BME280;45163;47.690;11.770;2022-12-08T05:44:22;92599.75;;;-1.72;100.00
59367;BME280;45163;47.690;11.770;2022-12-08T05:46:48;92599.41;;;-1.71;100.00
59367;BME280;45163;47.690;11.770;2022-12-08T05:49:14;92603.59;;;-1.70;100.00
59367;BME280;45163;47.690;11.770;2022-12-08T05:51:40;92597.47;;;-1.70;100.00
59367;BME280;45163;47.690;11.770;2022-12-08T05:54:06;92599.38;;;-1.67;100.00
59367;BME280;45163;47.690;11.770;2022-12-08T05:56:32;92604.38;;;-1.66;100.00
59367;BME280;45163;47.690;11.770;2022-12-08T05:58:59;92599.38;;;-1.67;100.00
59367;BME280;45163;47.690;11.770;2022-12-08T06:01:28;92608.19;;;-1.63;100.00
59367;BME280;45163;47.690;11.770;2022-12-08T06:03:56;92606.31;;;-1.63;100.00
59367;BME280;45163;47.690;11.770;2022-12-08T06:06:22;92609.75;;;-1.62;100.00
59367;BME280;45163;47.690;11.770;2022-12-08T06:08:48;92605.56;;;-1.60;100.00
59367;BME280;45163;47.690;11.770;2022-12-08T06:11:24;92603.25;;;-1.61;100.00
59367;BME280;45163;47.690;11.770;2022-12-08T06:13:50;92609.00;;;-1.63;100.00
59367;BME280;45163;47.690;11.770;2022-12-08T06:16:17;92609.38;;;-1.61;100.00
59367;BME280;45163;47.690;11.770;2022-12-08T06:18:43;92604.75;;;-1.67;100.00
59367;BME280;45163;47.690;11.770;2022-12-08T06:21:11;92604.38;;;-1.66;100.00
59367;BME280;45163;47.690;11.770;2022-12-08T06:23:37;92596.34;;;-1.69;100.00
59367;BME280;45163;47.690;11.770;2022-12-08T06:26:10;92595.59;;;-1.66;100.00
59367;BME280;45163;47.690;11.770;2022-12-08T06:28:37;92599.41;;;-1.64;100.00
59367;BME280;45163;47.690;11.770;2022-12-08T06:31:23;92598.66;;;-1.61;100.00
59367;BME280;45163;47.690;11.770;2022-12-08T06:33:49;92596.38;;;-1.62;100.00
59367;BME280;45163;47.690;11.770;2022-12-08T06:36:17;92594.81;;;-1.63;100.00
59367;BME280;45163;47.690;11.770;2022-12-08T06:38:43;92594.81;;;-1.63;100.00
59367;BME280;45163;47.690;11.770;2022-12-08T06:41:10;92594.09;;;-1.60;100.00
59367;BME280;45163;47.690;11.770;2022-12-08T06:43:37;92597.53;;;-1.60;100.00
59367;BME280;45163;47.690;11.770;2022-12-08T06:46:05;92597.53;;;-1.60;100.00
59367;BME280;45163;47.690;11.770;2022-12-08T06:48:31;92597.19;;;-1.55;100.00
59367;BME280;45163;47.690;11.770;2022-12-08T06:51:05;92601.75;;;-1.55;100.00
59367;BME280;45163;47.690;11.770;2022-12-08T06:53:31;92596.03;;;-1.54;100.00
59367;BME280;45163;47.690;11.770;2022-12-08T06:55:57;92598.72;;;-1.50;100.00
59367;BME280;45163;47.690;11.770;2022-12-08T06:58:23;92595.25;;;-1.51;100.00
59367;BME280;45163;47.690;11.770;2022-12-08T07:00:49;92598.72;;;-1.46;100.00
59367;BME280;45163;47.690;11.770;2022-12-08T07:03:15;92596.03;;;-1.46;100.00
59367;BME280;45163;47.690;11.770;2022-12-08T07:05:41;92602.56;;;-1.47;100.00
59367;BME280;45163;47.690;11.770;2022-12-08T07:08:07;92602.94;;;-1.49;100.00
59367;BME280;45163;47.690;11.770;2022-12-08T07:10:34;92609.44;;;-1.50;100.00
59367;BME280;45163;47.690;11.770;2022-12-08T07:13:00;92607.53;;;-1.49;100.00
59367;BME280;45163;47.690;11.770;2022-12-08T07:15:27;92608.66;;;-1.47;100.00
59367;BME280;45163;47.690;11.770;2022-12-08T07:17:53;92600.28;;;-1.45;100.00
59367;BME280;45163;47.690;11.770;2022-12-08T07:20:18;92614.44;;;-1.41;100.00
59367;BME280;45163;47.690;11.770;2022-12-08T07:22:51;92607.19;;;-1.37;100.00
59367;BME280;45163;47.690;11.770;2022-12-08T07:25:18;92603.41;;;-1.29;100.00
59367;BME280;45163;47.690;11.770;2022-12-08T07:27:45;92603.81;;;-1.23;100.00
59367;BME280;45163;47.690;11.770;2022-12-08T07:30:11;92602.28;;;-1.21;100.00
59367;BME280;45163;47.690;11.770;2022-12-08T07:32:38;92604.97;;;-1.17;100.00
59367;BME280;45163;47.690;11.770;2022-12-08T07:35:05;92613.41;;;-1.15;100.00
59367;BME280;45163;47.690;11.770;2022-12-08T07:37:32;92606.88;;;-1.18;100.00
59367;BME280;45163;47.690;11.770;2022-12-08T07:39:58;92602.69;;;-1.15;100.00
59367;BME280;45163;47.690;11.770;2022-12-08T07:42:24;92604.97;;;-1.14;100.00
59367;BME280;45163;47.690;11.770;2022-12-08T07:44:51;92608.84;;;-1.08;100.00
59367;BME280;45163;47.690;11.770;2022-12-08T07:47:17;92609.22;;;-1.06;100.00
59367;BME280;45163;47.690;11.770;2022-12-08T07:49:42;92600.44;;;-1.03;100.00
59367;BME280;45163;47.690;11.770;2022-12-08T07:52:08;92603.50;;;-0.93;100.00
59367;BME280;45163;47.690;11.770;2022-12-08T07:54:34;92599.66;;;-0.92;100.00
59367;BME280;45163;47.690;11.770;2022-12-08T07:57:00;92593.97;;;-0.80;100.00
59367;BME280;45163;47.690;11.770;2022-12-08T07:59:28;92594.38;;;-0.74;100.00
59367;BME280;45163;47.690;11.770;2022-12-08T08:01:54;92600.50;;;-0.70;100.00
59367;BME280;45163;47.690;11.770;2022-12-08T08:04:20;92602.81;;;-0.65;100.00
59367;BME280;45163;47.690;11.770;2022-12-08T08:06:46;92600.13;;;-0.62;100.00
59367;BME280;45163;47.690;11.770;2022-12-08T08:09:12;92598.97;;;-0.64;100.00
59367;BME280;45163;47.690;11.770;2022-12-08T08:11:38;92603.19;;;-0.63;100.00
59367;BME280;45163;47.690;11.770;2022-12-08T08:14:04;92599.34;;;-0.59;100.00
59367;BME280;45163;47.690;11.770;2022-12-08T08:16:30;92604.34;;;-0.54;100.00
59367;BME280;45163;47.690;11.770;2022-12-08T08:18:56;92599.00;;;-0.54;100.00
59367;BME280;45163;47.690;11.770;2022-12-08T08:21:22;92606.66;;;-0.41;100.00
59367;BME280;45163;47.690;11.770;2022-12-08T08:23:48;92605.50;;;-0.30;100.00
59367;BME280;45163;47.690;11.770;2022-12-08T08:26:14;92599.00;;;-0.25;100.00
59367;BME280;45163;47.690;11.770;2022-12-08T08:28:40;92596.69;;;-0.23;100.00
59367;BME280;45163;47.690;11.770;2022-12-08T08:31:06;92585.97;;;-0.23;100.00
59367;BME280;45163;47.690;11.770;2022-12-08T08:33:32;92596.31;;;-0.14;100.00
59367;BME280;45163;47.690;11.770;2022-12-08T08:35:58;92590.56;;;-0.09;100.00
59367;BME280;45163;47.690;11.770;2022-12-08T08:38:24;92585.94;;;-0.05;100.00
59367;BME280;45163;47.690;11.770;2022-12-08T08:40:50;92585.59;;;0.00;100.00
59367;BME280;45163;47.690;11.770;2022-12-08T08:43:16;92582.88;;;0.04;100.00
59367;BME280;45163;47.690;11.770;2022-12-08T08:45:58;92585.91;;;0.16;100.00
59367;BME280;45163;47.690;11.770;2022-12-08T08:48:26;92582.81;;;0.32;100.00
59367;BME280;45163;47.690;11.770;2022-12-08T08:50:52;92587.41;;;0.42;100.00
59367;BME280;45163;47.690;11.770;2022-12-08T08:53:18;92588.94;;;0.51;100.00
59367;BME280;45163;47.690;11.770;2022-12-08T08:55:44;92585.84;;;0.56;100.00
59367;BME280;45163;47.690;11.770;2022-12-08T08:58:10;92588.50;;;0.63;100.00
59367;BME280;45163;47.690;11.770;2022-12-08T09:00:36;92584.63;;;0.71;100.00
59367;BME280;45163;47.690;11.770;2022-12-08T09:03:02;92586.13;;;0.79;100.00
59367;BME280;45163;47.690;11.770;2022-12-08T09:05:28;92577.69;;;0.77;100.00
59367;BME280;45163;47.690;11.770;2022-12-08T09:07:54;92580.38;;;0.84;100.00
59367;BME280;45163;47.690;11.770;2022-12-08T09:10:20;92578.78;;;0.90;100.00
59367;BME280;45163;47.690;11.770;2022-12-08T09:12:47;92571.88;;;0.89;100.00
59367;BME280;45163;47.690;11.770;2022-12-08T09:15:13;92567.63;;;0.95;100.00
59367;BME280;45163;47.690;11.770;2022-12-08T09:17:39;92572.66;;;0.90;100.00
59367;BME280;45163;47.690;11.770;2022-12-08T09:20:06;92568.50;;;0.74;100.00
59367;BME280;45163;47.690;11.770;2022-12-08T09:22:32;92568.88;;;0.73;100.00
59367;BME280;45163;47.690;11.770;2022-12-08T09:24:58;92566.22;;;0.73;100.00
59367;BME280;45163;47.690;11.770;2022-12-08T09:27:24;92564.28;;;0.73;100.00
59367;BME280;45163;47.690;11.770;2022-12-08T09:29:50;92562.75;;;0.76;100.00
59367;BME280;45163;47.690;11.770;2022-12-08T09:32:16;92561.22;;;0.71;100.00
59367;BME280;45163;47.690;11.770;2022-12-08T09:34:42;92564.28;;;0.70;100.00
59367;BME280;45163;47.690;11.770;2022-12-08T09:37:08;92562.03;;;0.54;100.00
59367;BME280;45163;47.690;11.770;2022-12-08T09:39:34;92556.31;;;0.56;100.00
59367;BME280;45163;47.690;11.770;2022-12-08T09:42:03;92559.00;;;0.48;100.00
59367;BME280;45163;47.690;11.770;2022-12-08T09:50:27;92547.28;;;0.98;100.00
59367;BME280;45163;47.690;11.770;2022-12-08T09:58:08;92550.69;;;6.34;100.00
59367;BME280;45163;47.690;11.770;2022-12-08T10:00:38;92529.97;;;8.17;100.00
59367;BME280;45163;47.690;11.770;2022-12-08T10:03:11;92502.25;;;9.54;100.00
59367;BME280;45163;47.690;11.770;2022-12-08T10:05:42;92487.22;;;10.30;100.00
59367;BME280;45163;47.690;11.770;2022-12-08T10:08:20;92484.41;;;11.82;100.00
59367;BME280;45163;47.690;11.770;2022-12-08T10:10:59;92470.94;;;13.13;97.18
59367;BME280;45163;47.690;11.770;2022-12-08T10:13:57;92463.19;;;12.97;81.51
59367;BME280;45163;47.690;11.770;2022-12-08T10:16:34;92461.50;;;13.74;80.78
59367;BME280;45163;47.690;11.770;2022-12-08T10:19:17;92466.41;;;13.69;69.98
59367;BME280;45163;47.690;11.770;2022-12-08T10:21:44;92455.75;;;13.27;67.52
59367;BME280;45163;47.690;11.770;2022-12-08T10:24:18;92453.00;;;12.74;64.27
59367;BME280;45163;47.690;11.770;2022-12-08T10:26:47;92450.88;;;12.92;63.00
59367;BME280;45163;47.690;11.770;2022-12-08T10:29:14;92448.13;;;12.39;63.16
59367;BME280;45163;47.690;11.770;2022-12-08T10:31:40;92450.31;;;12.88;61.26
59367;BME280;45163;47.690;11.770;2022-12-08T10:34:20;92442.22;;;13.53;60.69
59367;BME280;45163;47.690;11.770;2022-12-08T10:36:58;92436.59;;;13.42;55.84
59367;BME280;45163;47.690;11.770;2022-12-08T10:39:40;92437.63;;;13.30;52.14
59367;BME280;45163;47.690;11.770;2022-12-08T10:47:19;92440.94;;;14.19;49.18
59367;BME280;45163;47.690;11.770;2022-12-08T10:49:46;92434.97;;;14.20;47.80
59367;BME280;45163;47.690;11.770;2022-12-08T10:52:23;92431.91;;;13.18;44.67
59367;BME280;45163;47.690;11.770;2022-12-08T10:54:53;92425.78;;;13.09;45.82
59367;BME280;45163;47.690;11.770;2022-12-08T10:57:21;92413.19;;;13.61;48.12
59367;BME280;45163;47.690;11.770;2022-12-08T10:59:48;92412.88;;;13.74;45.87
59367;BME280;45163;47.690;11.770;2022-12-08T11:02:19;92407.19;;;14.33;45.83
59367;BME280;45163;47.690;11.770;2022-12-08T11:04:45;92402.16;;;14.93;42.09
59367;BME280;45163;47.690;11.770;2022-12-08T11:07:21;92403.78;;;15.05;41.59
59367;BME280;45163;47.690;11.770;2022-12-08T11:09:52;92401.13;;;15.74;43.59
59367;BME280;45163;47.690;11.770;2022-12-08T11:12:21;92398.66;;;15.50;44.05
59367;BME280;45163;47.690;11.770;2022-12-08T11:14:57;92389.00;;;15.03;42.64
59367;BME280;45163;47.690;11.770;2022-12-08T11:17:28;92386.88;;;14.45;40.03
59367;BME280;45163;47.690;11.770;2022-12-08T11:20:20;92390.25;;;14.35;40.36
59367;BME280;45163;47.690;11.770;2022-12-08T11:22:54;92384.72;;;15.28;42.31
59367;BME280;45163;47.690;11.770;2022-12-08T11:25:27;92378.78;;;15.35;40.64
59367;BME280;45163;47.690;11.770;2022-12-08T11:27:58;92376.72;;;14.31;39.09
59367;BME280;45163;47.690;11.770;2022-12-08T11:30:29;92368.19;;;15.54;38.60
59367;BME280;45163;47.690;11.770;2022-12-08T11:33:16;92381.59;;;15.72;38.83
59367;BME280;45163;47.690;11.770;2022-12-08T11:35:48;92368.28;;;16.08;37.07
59367;BME280;45163;47.690;11.770;2022-12-08T11:38:18;92373.72;;;15.91;39.97
59367;BME280;45163;47.690;11.770;2022-12-08T11:40:58;92369.09;;;14.87;39.02
59367;BME280;45163;47.690;11.770;2022-12-08T11:46:14;92364.59;;;15.74;41.15
59367;BME280;45163;47.690;11.770;2022-12-08T11:49:05;92359.19;;;15.59;39.60
59367;BME280;45163;47.690;11.770;2022-12-08T11:51:38;92357.09;;;16.77;42.13
59367;BME280;45163;47.690;11.770;2022-12-08T11:54:23;92353.34;;;16.85;36.24
59367;BME280;45163;47.690;11.770;2022-12-08T11:56:59;92355.31;;;16.74;36.22
59367;BME280;45163;47.690;11.770;2022-12-08T11:59:32;92347.06;;;16.14;30.11
59367;BME280;45163;47.690;11.770;2022-12-08T12:02:01;92355.41;;;15.82;36.52
59367;BME280;45163;47.690;11.770;2022-12-08T12:17:52;92341.19;;;15.89;37.88
59367;BME280;45163;47.690;11.770;2022-12-08T12:20:27;92337.19;;;15.59;36.15
59367;BME280;45163;47.690;11.770;2022-12-08T12:23:05;92331.59;;;16.22;34.71
59367;BME280;45163;47.690;11.770;2022-12-08T12:25:34;92337.66;;;15.52;32.69
59367;BME280;45163;47.690;11.770;2022-12-08T12:28:04;92333.53;;;15.30;34.04
59367;BME280;45163;47.690;11.770;2022-12-08T12:31:31;92325.16;;;15.51;34.30
59367;BME280;45163;47.690;11.770;2022-12-08T12:33:37;92319.78;;;15.30;32.90
59367;BME280;45163;47.690;11.770;2022-12-08T12:36:05;92319.84;;;14.78;32.96
59367;BME280;45163;47.690;11.770;2022-12-08T12:38:38;92309.75;;;15.27;35.32
59367;BME280;45163;47.690;11.770;2022-12-08T12:41:27;92310.47;;;16.08;32.03
59367;BME280;45163;47.690;11.770;2022-12-08T12:54:43;92304.28;;;13.82;34.87
59367;BME280;45163;47.690;11.770;2022-12-08T13:07:40;92297.03;;;10.30;42.34
59367;BME280;45163;47.690;11.770;2022-12-08T13:13:01;92298.09;;;8.29;46.19
59367;BME280;45163;47.690;11.770;2022-12-08T13:15:33;92296.84;;;7.99;48.85
59367;BME280;45163;47.690;11.770;2022-12-08T13:18:00;92289.81;;;7.32;51.52
59367;BME280;45163;47.690;11.770;2022-12-08T13:20:27;92289.00;;;5.79;54.15
59367;BME280;45163;47.690;11.770;2022-12-08T13:33:26;92301.94;;;3.52;81.37
59367;BME280;45163;47.690;11.770;2022-12-08T13:36:27;92295.72;;;3.11;86.20
59367;BME280;45163;47.690;11.770;2022-12-08T13:38:57;92300.00;;;2.85;90.23
59367;BME280;45163;47.690;11.770;2022-12-08T13:42:01;92295.41;;;2.59;94.33
59367;BME280;45163;47.690;11.770;2022-12-08T13:47:09;92297.50;;;2.20;100.00
59367;BME280;45163;47.690;11.770;2022-12-08T13:49:41;92299.59;;;2.09;100.00
59367;BME280;45163;47.690;11.770;2022-12-08T13:52:18;92299.81;;;1.91;100.00
59367;BME280;45163;47.690;11.770;2022-12-08T13:54:46;92294.66;;;1.73;100.00
59367;BME280;45163;47.690;11.770;2022-12-08T13:57:33;92297.81;;;1.68;100.00
59367;BME280;45163;47.690;11.770;2022-12-08T14:00:19;92308.97;;;1.67;100.00
59367;BME280;45163;47.690;11.770;2022-12-08T14:02:48;92314.50;;;1.53;100.00
59367;BME280;45163;47.690;11.770;2022-12-08T14:05:19;92314.59;;;1.45;100.00
59367;BME280;45163;47.690;11.770;2022-12-08T14:07:48;92315.44;;;1.39;100.00
59367;BME280;45163;47.690;11.770;2022-12-08T14:10:23;92303.72;;;1.22;100.00
59367;BME280;45163;47.690;11.770;2022-12-08T14:13:03;92309.22;;;1.08;100.00
59367;BME280;45163;47.690;11.770;2022-12-08T14:15:34;92306.94;;;1.06;100.00
59367;BME280;45163;47.690;11.770;2022-12-08T14:18:00;92302.34;;;1.03;100.00
59367;BME280;45163;47.690;11.770;2022-12-08T14:22:56;92311.00;;;0.84;100.00
59367;BME280;45163;47.690;11.770;2022-12-08T14:25:25;92308.00;;;0.71;100.00
59367;BME280;45163;47.690;11.770;2022-12-08T14:27:56;92304.00;;;0.45;100.00
59367;BME280;45163;47.690;11.770;2022-12-08T14:30:27;92306.38;;;0.32;100.00
59367;BME280;45163;47.690;11.770;2022-12-08T14:32:57;92309.50;;;0.27;100.00
59367;BME280;45163;47.690;11.770;2022-12-08T14:35:34;92306.53;;;0.07;100.00
59367;BME280;45163;47.690;11.770;2022-12-08T14:38:11;92311.16;;;0.03;100.00
59367;BME280;45163;47.690;11.770;2022-12-08T14:40:45;92321.91;;;-0.01;100.00
59367;BME280;45163;47.690;11.770;2022-12-08T14:43:17;92320.06;;;-0.11;100.00